createdAt,value
2023-04-15T04:00:28.645Z,0.00
2023-04-15T04:05:28.587Z,4.00
2023-04-15T04:10:28.523Z,4.00
2023-04-15T04:15:35.539Z,16.00
2023-04-15T04:20:28.413Z,32.00
2023-04-15T04:25:28.371Z,60.00
2023-04-15T04:30:28.328Z,112.00
2023-04-15T04:35:28.280Z,188.00
2023-04-15T04:40:28.201Z,284.00
2023-04-15T04:45:28.149Z,404.00
2023-04-15T04:50:28.127Z,560.00
2023-04-15T04:55:28.060Z,776.00
2023-04-15T05:00:28.012Z,1048.00
2023-04-15T05:05:27.937Z,1356.00
2023-04-15T05:10:27.872Z,1700.00
2023-04-15T05:15:27.843Z,2116.00
2023-04-15T05:20:27.784Z,2596.00
2023-04-15T05:25:27.720Z,3076.00
2023-04-15T05:30:27.668Z,3724.00
2023-04-15T05:35:27.651Z,4676.00
2023-04-15T05:40:27.565Z,6660.00
2023-04-15T05:45:27.501Z,15200.00
2023-04-15T05:50:27.451Z,21952.00
2023-04-15T05:55:27.423Z,20896.00
2023-04-15T06:00:27.342Z,23904.00
2023-04-15T06:05:27.291Z,28512.00
2023-04-15T06:10:27.230Z,30816.00
2023-04-15T06:15:27.198Z,33728.00
2023-04-15T06:20:27.122Z,25536.00
2023-04-15T06:25:27.076Z,31872.00
2023-04-15T06:30:27.022Z,29088.00
2023-04-15T06:35:26.975Z,22880.00
2023-04-15T06:40:26.922Z,33568.00
2023-04-15T06:45:26.861Z,38656.00
2023-04-15T06:50:26.848Z,22048.00
2023-04-15T06:55:26.755Z,19712.00
2023-04-15T07:00:26.704Z,18912.00
2023-04-15T07:05:26.657Z,24672.00
2023-04-15T07:10:26.573Z,17664.00
2023-04-15T07:15:26.542Z,12772.00
2023-04-15T07:20:26.505Z,13084.00
2023-04-15T07:25:26.523Z,12168.00
2023-04-15T07:30:26.359Z,9276.00
2023-04-15T07:35:26.323Z,10536.00
2023-04-15T07:40:26.265Z,9040.00
2023-04-15T07:45:26.199Z,9392.00
2023-04-15T07:50:26.140Z,9168.00
2023-04-15T07:55:27.736Z,9204.00
2023-04-15T08:00:26.038Z,9220.00
2023-04-15T08:05:25.997Z,9220.00
2023-04-15T08:10:25.932Z,8780.00
2023-04-15T08:15:25.879Z,8668.00
2023-04-15T08:20:25.816Z,8680.00
2023-04-15T08:25:25.766Z,8848.00
2023-04-15T08:30:25.698Z,8752.00
2023-04-15T08:35:25.680Z,8884.00
2023-04-15T08:40:25.586Z,9112.00
2023-04-15T08:45:25.532Z,10280.00
2023-04-15T08:50:25.476Z,10488.00
2023-04-15T08:55:25.443Z,9356.00
2023-04-15T09:00:25.373Z,9756.00
2023-04-15T09:05:25.313Z,10016.00
2023-04-15T09:10:25.277Z,9836.00
2023-04-15T09:15:25.218Z,9560.00
2023-04-15T09:20:25.147Z,9912.00
2023-04-15T09:25:25.092Z,10120.00
2023-04-15T09:30:25.037Z,9876.00
2023-04-15T09:35:25.012Z,10516.00
2023-04-15T09:40:24.911Z,10768.00
2023-04-15T09:45:27.141Z,11984.00
2023-04-15T09:50:25.189Z,8092.00
2023-04-15T09:55:24.764Z,10844.00
2023-04-15T10:00:24.722Z,9868.00
2023-04-15T10:05:24.638Z,8576.00
2023-04-15T10:10:24.597Z,7644.00
2023-04-15T10:15:24.576Z,7764.00
2023-04-15T10:20:24.477Z,7916.00
2023-04-15T10:25:24.584Z,9808.00
2023-04-15T10:30:24.380Z,10532.00
2023-04-15T10:35:24.352Z,9928.00
2023-04-15T10:40:24.272Z,8312.00
2023-04-15T10:45:24.219Z,8540.00
2023-04-15T10:50:24.163Z,8772.00
2023-04-15T10:55:24.215Z,8868.00
2023-04-15T11:00:24.039Z,6772.00
2023-04-15T11:05:24.000Z,6896.00
2023-04-15T11:10:23.938Z,6476.00
2023-04-15T11:15:23.915Z,4648.00
2023-04-15T11:20:23.816Z,4996.00
2023-04-15T11:25:23.776Z,5784.00
2023-04-15T11:30:23.733Z,7812.00
2023-04-15T11:35:23.675Z,7816.00
2023-04-15T11:40:23.613Z,6244.00
2023-04-15T11:45:23.558Z,5648.00
2023-04-15T11:50:23.509Z,5616.00
2023-04-15T11:55:23.501Z,6900.00
2023-04-15T12:00:23.377Z,6420.00
2023-04-15T12:05:23.379Z,7112.00
2023-04-15T12:10:23.290Z,4196.00
2023-04-15T12:15:23.228Z,2736.00
2023-04-15T12:20:23.167Z,2096.00
2023-04-15T12:25:23.115Z,2044.00
2023-04-15T12:30:23.057Z,1612.00
2023-04-15T12:35:23.033Z,2092.00
2023-04-15T12:40:22.961Z,1456.00
2023-04-15T12:45:22.909Z,1368.00
2023-04-15T12:50:22.882Z,1800.00
2023-04-15T12:55:22.811Z,1468.00
2023-04-15T13:00:22.736Z,1360.00
2023-04-15T13:05:22.677Z,1296.00
2023-04-15T13:10:22.629Z,1216.00
2023-04-15T13:15:22.608Z,1324.00
2023-04-15T13:20:22.517Z,1400.00
2023-04-15T13:25:22.472Z,1432.00
2023-04-15T13:30:22.406Z,1548.00
2023-04-15T13:35:22.468Z,1772.00
2023-04-15T13:40:22.295Z,1976.00
2023-04-15T13:45:22.289Z,2168.00
2023-04-15T13:50:22.202Z,2476.00
2023-04-15T13:55:24.470Z,3048.00
2023-04-15T14:00:22.082Z,4380.00
2023-04-15T14:05:22.021Z,5248.00
2023-04-15T14:10:21.973Z,5000.00
2023-04-15T14:15:21.959Z,5032.00
2023-04-15T14:20:21.862Z,4336.00
2023-04-15T14:25:32.862Z,4164.00
2023-04-15T14:30:22.747Z,3012.00
2023-04-15T14:35:21.719Z,3556.00
2023-04-15T14:40:21.650Z,4704.00
2023-04-15T14:45:21.580Z,5004.00
2023-04-15T14:50:21.532Z,5608.00
2023-04-15T14:55:21.500Z,5356.00
2023-04-15T15:00:21.422Z,5176.00
2023-04-15T15:05:21.459Z,3096.00
2023-04-15T15:10:33.119Z,1800.00
2023-04-15T15:15:28.929Z,2108.00
2023-04-15T15:20:22.207Z,3556.00
2023-04-15T15:25:21.145Z,3644.00
2023-04-15T15:30:21.087Z,3108.00
2023-04-15T15:35:21.072Z,2252.00
2023-04-15T15:40:20.979Z,3168.00
2023-04-15T15:45:20.925Z,3268.00
2023-04-15T15:50:20.873Z,3376.00
2023-04-15T15:55:20.840Z,2460.00
2023-04-15T16:00:20.782Z,1560.00
2023-04-15T16:05:20.714Z,1720.00
2023-04-15T16:10:20.652Z,1748.00
2023-04-15T16:15:20.614Z,1752.00
2023-04-15T16:20:20.562Z,1108.00
2023-04-15T16:25:20.491Z,1044.00
2023-04-15T16:30:22.035Z,932.00
2023-04-15T16:35:20.401Z,812.00
2023-04-15T16:40:20.325Z,788.00
2023-04-15T16:45:20.279Z,636.00
2023-04-15T16:50:20.224Z,600.00
2023-04-15T16:55:20.184Z,612.00
2023-04-15T17:00:20.122Z,364.00
2023-04-15T17:05:20.057Z,240.00
2023-04-15T17:10:20.000Z,200.00
2023-04-15T17:15:20.024Z,160.00
2023-04-15T17:20:19.892Z,204.00
2023-04-15T17:25:19.894Z,168.00
2023-04-15T17:30:19.790Z,156.00
2023-04-15T17:35:19.775Z,132.00
2023-04-15T17:40:19.676Z,120.00
2023-04-15T17:45:19.624Z,104.00
2023-04-15T17:50:19.583Z,88.00
2023-04-15T17:55:19.552Z,80.00
2023-04-15T18:00:19.468Z,76.00
2023-04-15T18:05:19.437Z,48.00
2023-04-15T18:10:19.361Z,36.00
2023-04-15T18:15:19.326Z,24.00
2023-04-15T18:20:19.280Z,16.00
2023-04-15T18:25:19.201Z,8.00
2023-04-15T18:30:19.148Z,4.00
2023-04-15T18:35:19.142Z,4.00
2023-04-15T18:40:19.036Z,4.00
2023-04-15T18:45:18.996Z,0.00
2023-04-15T18:50:18.923Z,0.00
2023-04-15T18:55:19.333Z,0.00
2023-04-15T19:00:18.838Z,0.00
2023-04-15T19:05:18.764Z,0.00
2023-04-15T19:10:18.728Z,0.00
2023-04-15T19:15:18.691Z,0.00
2023-04-15T19:20:18.623Z,0.00
2023-04-15T19:25:18.566Z,0.00
2023-04-15T19:30:18.519Z,0.00
2023-04-15T19:35:18.469Z,0.00
2023-04-15T19:40:18.403Z,0.00
2023-04-15T19:45:18.357Z,0.00
2023-04-15T19:50:18.301Z,0.00
2023-04-15T19:55:18.268Z,0.00
2023-04-15T20:00:18.195Z,0.00
2023-04-15T20:05:18.135Z,0.00
2023-04-15T20:10:18.100Z,0.00
2023-04-15T20:15:18.047Z,0.00
2023-04-15T20:20:18.362Z,0.00
2023-04-15T20:25:17.937Z,0.00
2023-04-15T20:30:17.876Z,0.00
2023-04-15T20:35:17.830Z,0.00
2023-04-15T20:40:17.775Z,0.00
2023-04-15T20:45:17.699Z,0.00
2023-04-15T20:50:17.670Z,0.00
2023-04-15T20:55:17.650Z,0.00
2023-04-15T21:00:17.550Z,0.00
2023-04-15T21:05:17.510Z,0.00
2023-04-15T21:10:17.468Z,0.00
2023-04-15T21:15:17.408Z,0.00
2023-04-15T21:20:17.358Z,0.00
2023-04-15T21:25:17.276Z,0.00
2023-04-15T21:30:17.239Z,0.00
2023-04-15T21:35:17.208Z,0.00
2023-04-15T21:40:17.135Z,0.00
2023-04-15T21:45:17.086Z,0.00
2023-04-15T21:50:17.031Z,0.00
2023-04-15T21:55:17.006Z,0.00
2023-04-15T22:00:16.909Z,0.00
2023-04-15T22:05:16.951Z,0.00
2023-04-15T22:10:16.818Z,0.00
2023-04-15T22:15:16.793Z,0.00
2023-04-15T22:20:16.696Z,0.00
2023-04-15T22:25:16.665Z,0.00
2023-04-15T22:30:16.588Z,0.00
2023-04-15T22:35:16.768Z,0.00
2023-04-15T22:40:16.486Z,0.00
2023-04-15T22:45:16.449Z,0.00
2023-04-15T22:50:16.386Z,0.00
2023-04-15T22:55:16.348Z,0.00
2023-04-15T23:00:16.347Z,0.00
2023-04-15T23:05:16.229Z,0.00
2023-04-15T23:10:16.171Z,0.00
2023-04-15T23:15:16.143Z,0.00
2023-04-15T23:20:16.075Z,0.00
2023-04-15T23:25:15.997Z,0.00
